Time;durP1;ratioP1;P1;durP2;ratioP2;P2;SDS_P1;SDS_P2;PMS_P1;PMS_P2;Temp;Humidity;BMP_temperature;BMP_pressure;BME280_temperature;BME280_humidity;BME280_pressure;Samples;Min_cycle;Max_cycle;Signal;HPM_P1;HPM_P2
2022/07/14 00:00:09;;;;;;;7.45;4.10;;;;;;;22.65;48.09;98829.91;5007839;28;20072;-71
2022/07/14 00:02:34;;;;;;;9.63;3.33;;;;;;;22.65;48.16;98834.50;5007965;28;20181;-71
2022/07/14 00:05:00;;;;;;;8.82;3.70;;;;;;;22.63;48.31;98833.88;5007700;28;20080;-71
2022/07/14 00:07:25;;;;;;;8.70;3.97;;;;;;;22.62;48.42;98832.22;5018952;28;20072;-71
2022/07/14 00:09:51;;;;;;;10.60;4.55;;;;;;;22.59;48.64;98833.50;5026727;28;20018;-71
2022/07/14 00:12:16;;;;;;;8.00;4.13;;;;;;;22.59;48.64;98835.34;5026429;28;20045;-71
2022/07/14 00:14:42;;;;;;;9.38;4.00;;;;;;;22.60;48.76;98829.75;5027201;28;20135;-70
2022/07/14 00:17:07;;;;;;;7.60;4.00;;;;;;;22.65;48.84;98827.22;5027022;28;20061;-71
2022/07/14 00:19:33;;;;;;;12.57;4.90;;;;;;;22.71;48.54;98825.53;5027199;28;20093;-70
2022/07/14 00:21:58;;;;;;;17.38;6.22;;;;;;;22.74;48.68;98826.97;5026457;28;20192;-68
2022/07/14 00:24:24;;;;;;;10.88;4.65;;;;;;;22.78;48.79;98818.22;5026959;28;20026;-69
2022/07/14 00:26:49;;;;;;;9.93;4.55;;;;;;;22.82;48.64;98816.75;5026935;28;20095;-68
2022/07/14 00:29:14;;;;;;;14.68;4.75;;;;;;;22.86;48.77;98817.97;5026925;28;20025;-68
2022/07/14 00:31:40;;;;;;;14.57;5.28;;;;;;;22.90;48.55;98804.03;5026343;28;20042;-68
2022/07/14 00:34:05;;;;;;;15.30;5.15;;;;;;;22.92;48.51;98802.78;5026626;28;20049;-68
2022/07/14 00:36:31;;;;;;;11.25;5.00;;;;;;;22.90;48.78;98806.72;5026839;28;20117;-68
2022/07/14 00:38:56;;;;;;;12.70;6.20;;;;;;;22.91;48.93;98805.69;5022637;28;20211;-68
2022/07/14 00:41:23;;;;;;;9.95;5.03;;;;;;;22.90;48.85;98804.03;5026732;28;20026;-68
2022/07/14 00:43:49;;;;;;;16.27;5.78;;;;;;;22.88;49.07;98801.56;5033213;28;20231;-68
2022/07/14 00:46:14;;;;;;;11.45;5.70;;;;;;;22.86;49.20;98796.41;5026451;28;20204;-70
2022/07/14 00:48:40;;;;;;;18.23;6.03;;;;;;;22.86;49.48;98796.41;5017357;28;20026;-68
2022/07/14 00:51:06;;;;;;;11.60;6.60;;;;;;;22.84;49.10;98790.38;5020279;28;20107;-67
2022/07/14 00:53:31;;;;;;;16.88;6.35;;;;;;;22.83;49.01;98786.03;5026126;28;20269;-67
2022/07/14 00:55:57;;;;;;;17.27;5.47;;;;;;;22.83;49.18;98780.66;5020662;28;20039;-67
2022/07/14 00:58:22;;;;;;;17.30;6.55;;;;;;;22.86;49.06;98782.91;5006933;28;20034;-67
2022/07/14 01:00:49;;;;;;;11.98;5.75;;;;;;;22.89;48.88;98778.09;5006979;28;20054;-68
2022/07/14 01:03:14;;;;;;;15.75;6.85;;;;;;;22.90;48.99;98782.44;5016344;28;20068;-67
2022/07/14 01:05:40;;;;;;;12.20;4.80;;;;;;;22.91;49.00;98784.09;5026546;28;20171;-67
2022/07/14 01:08:06;;;;;;;10.85;5.85;;;;;;;22.94;48.90;98778.28;5026729;28;20053;-68
2022/07/14 01:10:31;;;;;;;10.57;6.03;;;;;;;22.92;48.94;98772.25;5026636;28;20041;-67
2022/07/14 01:13:03;;;;;;;13.35;6.28;;;;;;;22.91;48.79;98762.53;5026207;28;20058;-67
2022/07/14 01:15:29;;;;;;;10.88;6.43;;;;;;;22.88;48.74;98762.94;5026329;28;20049;-68
2022/07/14 01:17:54;;;;;;;14.43;6.53;;;;;;;22.90;48.98;98753.63;5026510;28;20038;-68
2022/07/14 01:20:21;;;;;;;15.18;6.32;;;;;;;22.92;48.66;98751.53;5026463;28;20017;-68
2022/07/14 01:22:47;;;;;;;18.73;6.90;;;;;;;22.94;48.66;98756.69;5026266;28;20232;-68
2022/07/14 01:25:14;;;;;;;11.63;5.70;;;;;;;22.95;48.57;98756.47;5025925;28;20030;-68
2022/07/14 01:27:40;;;;;;;13.23;6.28;;;;;;;22.95;48.69;98761.84;5012820;28;20053;-68
2022/07/14 01:30:07;;;;;;;12.10;5.57;;;;;;;22.97;48.33;98758.94;5006779;28;20018;-68
2022/07/14 01:32:32;;;;;;;10.93;5.45;;;;;;;22.98;48.47;98766.00;5011367;28;20057;-68
2022/07/14 01:34:59;;;;;;;11.20;5.38;;;;;;;23.01;48.34;98762.88;5023630;28;20255;-67
2022/07/14 01:37:25;;;;;;;15.88;6.03;;;;;;;22.99;48.46;98756.88;5006600;28;20049;-68
2022/07/14 01:39:50;;;;;;;14.48;5.47;;;;;;;22.95;48.38;98756.47;5006979;28;20086;-68
2022/07/14 01:42:16;;;;;;;14.93;6.07;;;;;;;22.93;48.71;98765.81;5012259;28;20026;-68
2022/07/14 01:44:41;;;;;;;16.27;6.00;;;;;;;22.93;48.50;98757.72;5025887;28;20029;-68
2022/07/14 01:47:07;;;;;;;16.60;7.00;;;;;;;22.92;48.75;98761.47;5027056;28;20059;-68
2022/07/14 01:49:32;;;;;;;12.43;6.05;;;;;;;22.85;49.04;98759.69;5029783;28;20053;-68
2022/07/14 01:51:58;;;;;;;16.98;6.32;;;;;;;22.81;48.94;98755.75;5029419;28;20025;-68
2022/07/14 01:54:26;;;;;;;20.67;6.30;;;;;;;22.81;48.79;98760.31;5029466;28;20021;-68
2022/07/14 01:56:51;;;;;;;17.40;6.28;;;;;;;22.80;49.20;98764.06;5029616;28;20105;-68
2022/07/14 01:59:17;;;;;;;11.77;5.95;;;;;;;22.76;49.36;98754.78;5029724;28;20029;-68
2022/07/14 02:01:44;;;;;;;11.82;6.05;;;;;;;22.75;49.47;98762.03;5029508;28;20026;-68
2022/07/14 02:04:14;;;;;;;11.68;5.25;;;;;;;22.75;49.47;98753.94;5029648;28;20247;-67
2022/07/14 02:06:49;;;;;;;9.88;4.90;;;;;;;22.79;49.25;98754.34;5029408;28;20037;-67
2022/07/14 02:09:15;;;;;;;12.32;5.43;;;;;;;22.81;49.26;98763.00;5029474;28;20053;-67
2022/07/14 02:14:25;;;;;;;14.85;5.70;;;;;;;22.86;49.00;98812.56;5029017;28;20277;-67
2022/07/14 02:16:51;;;;;;;9.68;5.13;;;;;;;22.98;48.79;98815.38;5016982;28;20046;-67
2022/07/14 02:19:16;;;;;;;9.35;4.80;;;;;;;23.08;48.01;98822.16;5029337;28;20022;-67
2022/07/14 02:21:43;;;;;;;18.15;5.25;;;;;;;23.16;47.89;98811.88;5028537;28;20057;-67
2022/07/14 02:24:09;;;;;;;11.27;4.65;;;;;;;23.30;47.61;98817.22;5043184;28;20087;-68
2022/07/14 02:26:36;;;;;;;12.43;4.45;;;;;;;23.38;47.08;98824.22;5029144;28;20030;-68
2022/07/14 02:29:04;;;;;;;8.57;4.35;;;;;;;23.37;46.35;98815.28;5028322;28;20033;-67
2022/07/14 02:31:31;;;;;;;12.55;4.95;;;;;;;23.39;46.95;98823.97;5028503;28;20026;-68
2022/07/14 02:33:56;;;;;;;10.88;3.90;;;;;;;23.44;46.35;98826.00;5028499;28;20101;-68
2022/07/14 02:36:23;;;;;;;9.63;3.65;;;;;;;23.43;46.24;98836.00;5028746;28;20029;-68
2022/07/14 02:38:49;;;;;;;9.77;4.28;;;;;;;23.45;46.18;98827.66;5028660;28;20404;-68
2022/07/14 02:41:15;;;;;;;9.30;3.83;;;;;;;23.51;46.27;98831.34;5028938;28;20041;-68
2022/07/14 02:43:40;;;;;;;9.27;3.03;;;;;;;23.56;45.38;98840.41;5028818;28;20026;-68
2022/07/14 02:46:06;;;;;;;7.53;3.45;;;;;;;23.56;45.22;98839.59;5026318;28;20029;-67
2022/07/14 02:48:32;;;;;;;7.93;3.08;;;;;;;23.52;45.18;98835.69;5024726;28;20036;-68
2022/07/14 02:50:59;;;;;;;5.22;3.08;;;;;;;23.45;45.42;98841.16;5028394;28;20084;-67
2022/07/14 02:53:25;;;;;;;4.43;2.75;;;;;;;23.41;44.71;98832.69;5028838;28;20029;-68
2022/07/14 02:55:50;;;;;;;6.93;2.83;;;;;;;23.40;44.86;98833.72;5028895;28;20022;-68
2022/07/14 02:58:18;;;;;;;8.68;2.53;;;;;;;23.43;44.23;98819.78;5027249;28;20230;-68
2022/07/14 03:00:43;;;;;;;6.20;2.47;;;;;;;23.46;44.79;98813.94;5028650;28;20022;-68
2022/07/14 03:03:09;;;;;;;4.35;2.50;;;;;;;23.46;44.70;98797.72;5027647;28;20060;-68
2022/07/14 03:05:34;;;;;;;4.38;2.63;;;;;;;23.48;43.96;98789.41;5028643;28;20017;-68
2022/07/14 03:08:00;;;;;;;5.63;2.10;;;;;;;23.46;43.56;98783.41;5028247;28;20131;-68
2022/07/14 03:10:25;;;;;;;5.50;2.30;;;;;;;23.35;43.73;98784.16;5028332;28;20033;-68
2022/07/14 03:12:52;;;;;;;4.88;2.05;;;;;;;23.30;44.26;98776.75;5027850;28;20044;-67
2022/07/14 03:15:18;;;;;;;3.30;1.80;;;;;;;23.27;44.45;98786.09;5027550;28;20254;-67
2022/07/14 03:17:44;;;;;;;3.65;2.28;;;;;;;23.17;45.18;98781.16;5027786;28;20030;-67
2022/07/14 03:20:10;;;;;;;3.90;1.88;;;;;;;23.10;45.61;98787.66;5028447;28;20216;-67
2022/07/14 03:22:35;;;;;;;3.67;2.05;;;;;;;23.03;45.97;98790.41;5028096;28;20034;-67
2022/07/14 03:25:01;;;;;;;8.00;2.15;;;;;;;22.98;46.71;98798.38;5027943;28;20163;-65
2022/07/14 03:27:26;;;;;;;2.92;1.70;;;;;;;22.89;47.27;98791.56;5027711;28;20167;-67
2022/07/14 03:29:52;;;;;;;2.90;1.80;;;;;;;22.82;47.66;98797.03;5027835;28;20041;-67
2022/07/14 03:32:17;;;;;;;3.17;1.88;;;;;;;22.74;47.21;98779.25;5027795;28;20037;-67
2022/07/14 03:34:43;;;;;;;5.25;2.50;;;;;;;22.73;47.05;98757.91;5027500;28;20049;-67
2022/07/14 03:37:09;;;;;;;3.90;1.65;;;;;;;22.76;47.18;98744.00;5012346;28;20124;-67
2022/07/14 03:39:34;;;;;;;2.60;1.60;;;;;;;22.75;47.08;98742.34;5027805;28;20234;-67
2022/07/14 03:42:00;;;;;;;12.88;2.10;;;;;;;22.68;48.13;98737.81;5027264;28;20041;-67
2022/07/14 03:44:25;;;;;;;3.63;1.90;;;;;;;22.64;48.45;98735.78;5045293;28;20097;-67
2022/07/14 03:46:51;;;;;;;3.33;1.90;;;;;;;22.61;48.54;98737.03;5030154;28;20101;-67
2022/07/14 03:49:16;;;;;;;3.08;1.45;;;;;;;22.61;48.59;98733.50;5022499;28;20044;-67
2022/07/14 03:51:43;;;;;;;2.60;1.80;;;;;;;22.61;48.58;98738.91;5027537;28;20037;-67
2022/07/14 03:54:08;;;;;;;3.65;1.45;;;;;;;22.61;48.44;98720.03;5027377;28;20044;-67
2022/07/14 03:56:34;;;;;;;2.83;1.58;;;;;;;22.64;48.54;98727.69;5027441;28;20054;-67
2022/07/14 03:58:59;;;;;;;3.25;1.77;;;;;;;22.65;48.67;98726.66;5027439;28;20089;-67
2022/07/14 04:01:25;;;;;;;3.15;1.98;;;;;;;22.62;49.20;98717.13;5026821;28;20048;-67
2022/07/14 04:03:50;;;;;;;2.72;1.95;;;;;;;22.58;49.29;98707.81;5008332;28;20049;-67
2022/07/14 04:06:16;;;;;;;8.23;1.88;;;;;;;22.61;49.02;98709.25;5007956;28;20026;-67
2022/07/14 04:08:44;;;;;;;2.90;1.73;;;;;;;22.62;49.05;98710.91;5007649;28;20061;-67
2022/07/14 04:11:09;;;;;;;4.95;1.85;;;;;;;22.65;48.62;98711.28;5007330;28;20042;-67
2022/07/14 04:13:35;;;;;;;3.85;1.77;;;;;;;22.69;48.42;98717.06;5007620;28;20129;-67
2022/07/14 04:16:00;;;;;;;2.03;1.77;;;;;;;22.71;49.05;98715.00;5007411;28;20251;-67
2022/07/14 04:18:26;;;;;;;3.92;2.10;;;;;;;22.71;49.05;98712.28;5007532;28;20022;-66
2022/07/14 04:20:51;;;;;;;4.70;2.17;;;;;;;22.70;49.29;98724.13;5007482;28;20026;-67
2022/07/14 04:23:17;;;;;;;4.15;1.45;;;;;;;22.74;49.15;98719.09;5020066;28;20037;-67
2022/07/14 04:25:42;;;;;;;6.15;1.67;;;;;;;22.75;49.23;98718.06;5015578;28;20105;-67
2022/07/14 04:28:08;;;;;;;6.00;4.07;;;;;;;22.78;49.14;98726.53;5007315;28;20283;-67
2022/07/14 04:30:33;;;;;;;5.85;1.85;;;;;;;22.83;49.47;98718.63;5007385;28;20120;-66
2022/07/14 04:32:59;;;;;;;4.57;1.70;;;;;;;22.79;49.33;98703.09;5018996;28;20050;-66
2022/07/14 04:35:24;;;;;;;7.60;1.98;;;;;;;22.76;49.25;98695.44;5026822;28;20040;-67
2022/07/14 04:37:50;;;;;;;7.13;2.22;;;;;;;22.77;49.38;98692.50;5026840;28;20060;-67
2022/07/14 04:40:16;;;;;;;2.58;1.83;;;;;;;22.79;49.38;98685.03;5026829;28;20030;-66
2022/07/14 04:42:41;;;;;;;2.88;1.75;;;;;;;22.81;49.15;98685.63;5025132;28;20064;-67
2022/07/14 04:45:07;;;;;;;10.65;2.90;;;;;;;22.85;49.58;98678.75;5027279;28;20033;-66
2022/07/14 04:47:33;;;;;;;5.13;2.30;;;;;;;22.89;49.12;98672.91;5012733;28;20030;-67
2022/07/14 04:52:49;;;;;;;3.78;2.05;;;;;;;23.10;48.46;98675.19;5026561;28;20095;-69
2022/07/14 04:55:16;;;;;;;6.68;2.03;;;;;;;23.22;47.94;98680.69;5026376;28;20022;-68
2022/07/14 04:57:42;;;;;;;5.07;2.17;;;;;;;23.37;47.45;98674.09;5026564;28;20044;-66
2022/07/14 05:00:09;;;;;;;5.25;1.95;;;;;;;23.44;47.62;98672.13;5027002;28;20034;-68
2022/07/14 05:02:35;;;;;;;3.95;2.10;;;;;;;23.55;46.96;98675.94;5026341;28;20037;-68
2022/07/14 05:05:00;;;;;;;3.65;2.13;;;;;;;23.62;46.78;98685.63;5026306;28;20151;-68
2022/07/14 05:07:26;;;;;;;4.30;2.80;;;;;;;23.88;46.00;98685.50;5026101;28;20037;-68
2022/07/14 05:09:51;;;;;;;4.95;2.50;;;;;;;24.10;45.62;98677.72;5026061;28;20128;-67
2022/07/14 05:12:18;;;;;;;7.30;2.45;;;;;;;24.30;45.21;98666.63;5026157;28;20026;-67
2022/07/14 05:14:44;;;;;;;7.95;2.40;;;;;;;24.33;45.22;98668.84;5017915;28;20030;-68
2022/07/14 05:17:11;;;;;;;5.90;2.17;;;;;;;24.33;45.21;98662.63;5007946;28;20065;-66
2022/07/14 05:19:37;;;;;;;9.73;2.60;;;;;;;24.41;45.45;98666.84;5026339;28;20134;-68
2022/07/14 05:22:03;;;;;;;9.05;3.15;;;;;;;24.51;44.71;98661.69;5027415;28;20091;-68
2022/07/14 05:24:28;;;;;;;14.30;3.42;;;;;;;24.49;44.22;98664.63;5030458;28;20045;-68
2022/07/14 05:26:54;;;;;;;10.43;2.80;;;;;;;24.45;44.27;98658.03;5030068;28;20100;-67
2022/07/14 05:29:19;;;;;;;8.13;3.05;;;;;;;24.47;44.26;98661.34;5029798;28;20045;-68
2022/07/14 05:31:45;;;;;;;7.50;2.70;;;;;;;24.49;43.59;98656.53;5029811;28;20049;-68
2022/07/14 05:34:10;;;;;;;5.57;2.08;;;;;;;24.45;43.97;98651.81;5030115;28;20037;-69
2022/07/14 05:36:36;;;;;;;12.02;2.35;;;;;;;24.44;43.55;98653.69;5020555;28;20110;-68
2022/07/14 05:39:02;;;;;;;5.25;2.53;;;;;;;24.46;43.55;98639.94;5028418;28;20222;-68
2022/07/14 05:41:28;;;;;;;7.90;2.50;;;;;;;24.51;43.14;98642.75;5030038;28;20034;-68
2022/07/14 05:43:53;;;;;;;6.00;2.40;;;;;;;24.56;42.84;98647.50;5029533;28;20202;-65
2022/07/14 05:46:19;;;;;;;12.20;2.75;;;;;;;24.57;43.11;98641.00;5029962;28;20113;-66
2022/07/14 05:48:44;;;;;;;5.75;2.38;;;;;;;24.58;42.37;98629.97;5029726;28;20370;-66
2022/07/14 05:51:14;;;;;;;8.93;2.70;;;;;;;24.57;42.65;98635.59;5029906;28;20101;-67
2022/07/14 05:53:41;;;;;;;6.80;2.38;;;;;;;24.56;42.60;98626.66;5029720;28;20022;-66
2022/07/14 05:56:07;;;;;;;4.85;2.67;;;;;;;24.57;42.64;98631.03;5029824;28;20223;-67
2022/07/14 05:58:34;;;;;;;6.40;2.72;;;;;;;24.55;42.23;98630.44;5029116;28;20044;-67
2022/07/14 06:00:59;;;;;;;5.80;2.53;;;;;;;24.52;42.00;98630.88;5029211;28;20104;-66
2022/07/14 06:03:25;;;;;;;6.93;2.80;;;;;;;24.48;42.24;98632.44;5029475;28;20029;-67
2022/07/14 06:05:51;;;;;;;7.20;2.33;;;;;;;24.48;42.06;98625.13;5029450;28;20227;-67
2022/07/14 06:08:16;;;;;;;6.90;2.22;;;;;;;24.51;41.91;98630.06;5028990;28;20030;-67
2022/07/14 06:10:42;;;;;;;9.98;3.00;;;;;;;24.54;41.93;98634.19;5029702;28;20067;-66
2022/07/14 06:13:08;;;;;;;7.20;2.35;;;;;;;24.53;41.91;98627.13;5029288;28;20231;-66
2022/07/14 06:15:33;;;;;;;8.18;2.58;;;;;;;24.56;42.02;98634.78;5029199;28;20058;-65
2022/07/14 06:17:59;;;;;;;7.68;2.30;;;;;;;24.55;41.35;98641.25;5029219;28;20049;-66
2022/07/14 06:20:24;;;;;;;8.57;2.63;;;;;;;24.55;41.64;98635.03;5029392;28;20030;-66
2022/07/14 06:22:50;;;;;;;11.18;2.53;;;;;;;24.56;41.81;98632.06;5028636;28;20097;-66
2022/07/14 06:25:16;;;;;;;4.00;2.20;;;;;;;24.68;41.12;98627.47;5028798;28;20030;-67
2022/07/14 06:27:42;;;;;;;8.35;2.42;;;;;;;24.80;40.88;98629.38;5029011;28;20029;-67
2022/07/14 06:30:08;;;;;;;7.20;2.40;;;;;;;24.87;40.82;98632.81;5029062;28;20084;-66
2022/07/14 06:32:36;;;;;;;5.93;3.30;;;;;;;24.97;40.63;98626.78;5028391;28;20062;-66
2022/07/14 06:35:03;;;;;;;11.65;2.38;;;;;;;25.05;40.59;98623.72;5028932;28;20033;-66
2022/07/14 06:37:29;;;;;;;8.10;2.80;;;;;;;25.16;40.72;98623.91;5020967;28;20151;-65
2022/07/14 06:39:54;;;;;;;7.18;2.92;;;;;;;25.25;41.12;98623.31;5028927;28;20026;-66
2022/07/14 06:42:20;;;;;;;6.85;2.40;;;;;;;25.31;40.68;98626.94;5028494;28;20045;-66
2022/07/14 06:44:45;;;;;;;8.13;2.65;;;;;;;25.39;40.56;98631.16;5028834;28;20037;-67
2022/07/14 06:47:12;;;;;;;11.70;2.30;;;;;;;25.40;40.38;98627.38;5017348;28;20030;-65
2022/07/14 06:49:37;;;;;;;9.32;2.25;;;;;;;25.41;40.34;98624.47;5026384;28;20227;-65
2022/07/14 06:52:04;;;;;;;5.47;2.15;;;;;;;25.39;40.19;98623.03;5036869;28;20029;-66
2022/07/14 06:54:29;;;;;;;7.32;2.38;;;;;;;25.42;40.13;98622.59;5028883;28;20030;-65
2022/07/14 06:56:55;;;;;;;10.10;2.30;;;;;;;25.44;40.53;98620.47;5028514;28;20032;-67
2022/07/14 06:59:20;;;;;;;8.60;2.83;;;;;;;25.45;40.45;98619.41;5027333;28;20021;-66
2022/07/14 07:01:46;;;;;;;5.80;2.97;;;;;;;25.46;40.28;98615.63;5028151;28;20029;-65
2022/07/14 07:04:11;;;;;;;11.63;2.80;;;;;;;25.42;40.57;98611.75;5027764;28;20105;-68
2022/07/14 07:06:45;;;;;;;9.32;3.08;;;;;;;25.37;41.03;98611.59;5027791;28;20029;-65
2022/07/14 07:09:14;;;;;;;8.77;3.20;;;;;;;25.34;41.06;98604.81;5028216;28;20041;-67
2022/07/14 07:11:41;;;;;;;8.50;3.30;;;;;;;25.32;41.07;98608.81;5027536;28;20106;-67
2022/07/14 07:14:07;;;;;;;8.70;3.33;;;;;;;25.28;41.10;98609.28;5027984;28;20099;-67
2022/07/14 07:16:33;;;;;;;11.07;3.67;;;;;;;25.27;41.33;98601.44;5027965;28;20159;-66
2022/07/14 07:18:58;;;;;;;7.50;3.10;;;;;;;25.34;41.45;98617.53;5027755;28;20060;-66
2022/07/14 07:21:24;;;;;;;11.57;3.47;;;;;;;25.35;41.53;98624.59;5027677;28;20034;-66
2022/07/14 07:23:50;;;;;;;8.60;3.28;;;;;;;25.36;41.65;98628.94;5028022;28;20025;-66
2022/07/14 07:26:16;;;;;;;9.98;3.17;;;;;;;25.39;41.75;98647.41;5011887;28;20038;-66
2022/07/14 07:28:43;;;;;;;7.03;4.03;;;;;;;25.34;41.78;98647.31;5020376;28;20098;-67
2022/07/14 07:31:09;;;;;;;8.07;3.38;;;;;;;25.28;41.94;98658.03;5028033;28;20053;-67
2022/07/14 07:33:35;;;;;;;8.48;3.03;;;;;;;25.27;42.27;98642.84;5026960;28;20030;-67
2022/07/14 07:36:01;;;;;;;9.63;3.28;;;;;;;25.22;42.79;98631.09;5027733;28;20053;-67
2022/07/14 07:38:27;;;;;;;8.50;2.72;;;;;;;25.10;43.10;98625.69;5028041;28;20089;-67
2022/07/14 07:40:53;;;;;;;5.55;2.83;;;;;;;24.99;44.76;98616.56;5027832;28;20041;-67
2022/07/14 07:43:21;;;;;;;7.63;3.17;;;;;;;24.76;45.83;98588.47;5027048;28;20105;-67
2022/07/14 07:45:48;;;;;;;8.05;2.63;;;;;;;24.56;46.30;98578.00;5027227;28;20116;-66
2022/07/14 07:48:13;;;;;;;9.02;2.65;;;;;;;24.28;46.68;98567.88;5013901;28;20109;-67
2022/07/14 07:50:43;;;;;;;8.68;2.80;;;;;;;23.99;46.70;98562.31;5027654;28;20038;-67
2022/07/14 07:53:10;;;;;;;6.77;2.40;;;;;;;23.86;46.78;98553.34;5027279;28;20064;-68
2022/07/14 07:55:35;;;;;;;4.97;2.30;;;;;;;23.79;46.98;98541.84;5027531;28;20144;-68
2022/07/14 07:58:01;;;;;;;11.40;2.75;;;;;;;23.87;47.38;98549.59;5027758;28;20026;-67
2022/07/14 08:00:28;;;;;;;5.40;2.88;;;;;;;23.96;47.81;98546.56;5027739;28;20026;-67
2022/07/14 08:02:54;;;;;;;6.15;2.42;;;;;;;24.03;47.31;98548.13;5026947;28;20041;-67
2022/07/14 08:05:22;;;;;;;6.53;2.28;;;;;;;24.10;46.87;98547.19;5027592;28;20131;-68
2022/07/14 08:07:48;;;;;;;5.88;2.67;;;;;;;24.00;46.86;98547.75;5008755;28;20030;-70
2022/07/14 08:10:14;;;;;;;4.93;2.97;;;;;;;24.01;47.40;98549.41;5027260;28;20041;-68
2022/07/14 08:12:40;;;;;;;13.13;2.97;;;;;;;24.02;48.02;98543.78;5026715;28;20239;-68
2022/07/14 08:15:07;;;;;;;8.85;2.88;;;;;;;24.11;47.57;98554.22;5016603;28;20033;-68
2022/07/14 08:17:33;;;;;;;7.05;2.83;;;;;;;24.23;47.25;98544.25;5019481;28;20045;-67
2022/07/14 08:19:58;;;;;;;10.63;2.10;;;;;;;24.33;47.03;98540.97;5025561;28;20040;-68
2022/07/14 08:22:25;;;;;;;11.90;2.75;;;;;;;24.35;47.12;98547.78;5025666;28;20049;-69
2022/07/14 08:24:51;;;;;;;6.43;2.95;;;;;;;24.36;47.00;98545.91;5026565;28;20030;-69
2022/07/14 08:27:17;;;;;;;13.35;3.10;;;;;;;24.43;47.14;98551.19;5026667;28;20084;-68
2022/07/14 08:29:42;;;;;;;6.30;3.35;;;;;;;24.47;47.65;98546.97;5026983;28;20022;-70
2022/07/14 08:32:08;;;;;;;6.32;2.95;;;;;;;24.46;47.44;98534.50;5026892;28;20246;-68
2022/07/14 08:34:33;;;;;;;9.23;3.88;;;;;;;24.46;46.68;98534.50;5026983;28;20045;-69
2022/07/14 08:36:59;;;;;;;5.38;3.20;;;;;;;24.46;47.21;98532.59;5026387;28;20049;-68
2022/07/14 08:39:26;;;;;;;9.45;3.28;;;;;;;24.52;46.29;98538.94;5026621;28;20053;-69
2022/07/14 08:41:54;;;;;;;16.38;3.53;;;;;;;24.63;46.09;98530.00;5026759;28;20045;-68
2022/07/14 08:44:20;;;;;;;6.75;3.58;;;;;;;24.67;46.58;98528.47;5026759;28;20227;-69
2022/07/14 08:46:47;;;;;;;9.10;3.78;;;;;;;24.72;46.65;98522.38;5018956;28;20026;-68
2022/07/14 08:49:14;;;;;;;9.63;4.07;;;;;;;24.75;47.02;98518.38;5024460;28;20182;-67
2022/07/14 08:51:40;;;;;;;9.20;3.72;;;;;;;24.78;46.53;98509.75;5025992;28;20026;-68
2022/07/14 08:54:09;;;;;;;14.07;3.60;;;;;;;24.73;45.91;98496.16;5025619;28;20033;-69
2022/07/14 08:56:39;;;;;;;12.00;3.47;;;;;;;24.76;45.50;98495.69;5026718;28;20032;-69
2022/07/14 08:59:06;;;;;;;8.88;3.10;;;;;;;24.81;45.61;98490.34;5030075;28;20030;-69
2022/07/14 09:01:32;;;;;;;6.63;3.33;;;;;;;24.89;46.14;98487.28;5030131;28;20088;-69
2022/07/14 09:03:59;;;;;;;7.57;3.38;;;;;;;24.91;46.38;98482.47;5030525;28;20072;-69
2022/07/14 09:07:00;;;;;;;9.13;3.83;;;;;;;24.93;45.83;98480.31;5028637;28;20049;-69
2022/07/14 09:09:30;;;;;;;10.25;3.70;;;;;;;24.96;45.82;98482.53;4967381;28;20078;-68
2022/07/14 09:12:04;;;;;;;6.60;3.22;;;;;;;25.04;45.94;98478.63;5015912;28;20025;-71
2022/07/14 09:15:44;;;;;;;13.20;3.53;;;;;;;25.07;45.22;98477.34;5029549;28;20092;-68
2022/07/14 09:17:21;;;;;;;7.93;3.38;;;;;;;25.10;45.82;98466.00;5033479;28;20153;-68
2022/07/14 09:20:12;;;;;;;4.30;2.75;;;;;;;25.09;45.63;98467.91;5045235;28;20638;-67
2022/07/14 09:22:40;;;;;;;7.13;2.85;;;;;;;25.11;45.36;98462.25;5027462;28;20072;-69
2022/07/14 09:25:09;;;;;;;6.47;2.88;;;;;;;25.16;46.05;98451.53;5022783;28;20053;-67
2022/07/14 09:27:35;;;;;;;8.23;2.30;;;;;;;25.21;45.70;98448.06;5034360;28;20022;-68
2022/07/14 09:30:03;;;;;;;4.47;2.55;;;;;;;25.24;45.53;98434.06;5030792;28;20053;-68
2022/07/14 09:32:51;;;;;;;4.97;2.17;;;;;;;25.25;44.63;98435.72;5028116;28;20030;-69
2022/07/14 09:35:23;;;;;;;4.90;2.35;;;;;;;25.25;44.46;98433.81;5016601;28;20022;-69
2022/07/14 09:37:50;;;;;;;7.15;2.42;;;;;;;25.28;44.21;98427.91;5021210;28;20041;-67
2022/07/14 09:40:25;;;;;;;8.25;2.33;;;;;;;25.31;43.86;98432.00;5029052;28;20033;-68
2022/07/14 09:43:04;;;;;;;7.07;2.60;;;;;;;25.37;44.45;98422.91;5028433;28;20227;-70
2022/07/14 09:45:38;;;;;;;5.22;3.13;;;;;;;25.41;44.31;98428.66;5028834;28;20038;-68
2022/07/14 09:48:03;;;;;;;4.22;2.60;;;;;;;25.42;44.45;98427.63;5028784;28;20036;-69
2022/07/14 09:50:32;;;;;;;8.73;2.30;;;;;;;25.43;44.23;98427.38;5029513;28;20049;-69
2022/07/14 09:52:57;;;;;;;7.65;2.40;;;;;;;25.43;43.89;98430.09;5029123;28;20038;-69
2022/07/14 09:55:23;;;;;;;4.53;2.22;;;;;;;25.42;43.93;98425.75;5029900;28;20041;-69
2022/07/14 09:57:52;;;;;;;6.03;2.50;;;;;;;25.37;43.63;98430.19;5029353;28;20050;-69
2022/07/14 10:00:19;;;;;;;10.07;2.67;;;;;;;25.34;44.03;98433.41;5029930;28;20088;-69
2022/07/14 10:02:46;;;;;;;6.00;2.08;;;;;;;25.27;43.77;98437.09;5029465;28;20022;-69
2022/07/14 10:05:12;;;;;;;3.63;2.25;;;;;;;25.24;44.00;98434.88;5029532;28;20233;-69
2022/07/14 10:07:39;;;;;;;5.78;2.45;;;;;;;25.25;43.82;98436.50;5028729;28;20026;-69
2022/07/14 10:10:04;;;;;;;3.25;1.92;;;;;;;25.30;43.49;98441.19;5029579;28;20030;-69
2022/07/14 10:12:30;;;;;;;2.08;1.75;;;;;;;25.34;43.12;98436.94;5029347;28;20242;-69
2022/07/14 10:15:00;;;;;;;3.25;2.00;;;;;;;25.34;43.09;98436.94;5029638;28;20091;-69
2022/07/14 10:17:28;;;;;;;3.10;1.88;;;;;;;25.34;43.00;98426.09;5028709;28;20194;-69
2022/07/14 10:19:55;;;;;;;2.83;2.03;;;;;;;25.33;42.59;98435.28;5028800;28;20026;-69
2022/07/14 10:22:20;;;;;;;2.67;1.60;;;;;;;25.34;42.14;98433.41;5028832;28;20029;-69
2022/07/14 10:24:49;;;;;;;4.55;2.10;;;;;;;25.36;42.05;98431.28;5025195;28;20123;-69
2022/07/14 10:27:18;;;;;;;3.17;1.98;;;;;;;25.41;41.85;98425.94;5021294;28;20033;-69
2022/07/14 10:29:48;;;;;;;3.42;2.00;;;;;;;25.47;41.96;98427.72;5029511;28;20156;-69
2022/07/14 10:32:42;;;;;;;3.33;1.88;;;;;;;25.49;41.94;98422.03;5028917;28;20021;-69
2022/07/14 10:35:30;;;;;;;4.72;1.88;;;;;;;25.51;42.19;98415.34;5029167;28;20124;-69
2022/07/14 10:38:24;;;;;;;3.80;1.50;;;;;;;25.53;42.03;98415.88;5028844;28;20028;-69
2022/07/14 10:40:59;;;;;;;7.82;2.38;;;;;;;25.55;42.24;98421.88;5029000;28;20057;-70
2022/07/14 10:43:37;;;;;;;3.28;1.80;;;;;;;25.58;42.48;98431.41;5027794;28;20097;-69
2022/07/14 10:46:03;;;;;;;4.18;1.85;;;;;;;25.59;42.37;98433.88;5026703;28;20033;-70
2022/07/14 10:48:36;;;;;;;5.82;2.10;;;;;;;25.58;42.26;98434.94;5009076;28;20045;-69
2022/07/14 10:51:14;;;;;;;4.40;1.58;;;;;;;25.58;42.16;98439.53;5009149;28;20310;-69
2022/07/14 10:54:06;;;;;;;3.58;1.58;;;;;;;25.57;42.22;98441.41;5021726;28;20045;-70
2022/07/14 10:56:32;;;;;;;3.20;1.73;;;;;;;25.55;42.12;98440.84;5028657;28;20080;-69
2022/07/14 10:59:25;;;;;;;4.68;2.08;;;;;;;25.58;42.10;98443.06;5028439;28;20041;-70
2022/07/14 11:02:12;;;;;;;4.13;1.90;;;;;;;25.61;41.72;98440.94;5028539;28;20041;-69
2022/07/14 11:05:03;;;;;;;3.95;1.98;;;;;;;25.62;41.87;98442.56;5010380;28;20049;-69
2022/07/14 11:07:38;;;;;;;3.50;2.28;;;;;;;25.61;41.69;98430.09;5028412;28;20049;-70
2022/07/14 11:10:25;;;;;;;4.28;1.83;;;;;;;25.62;41.56;98423.59;5028389;28;20029;-69
2022/07/14 11:13:00;;;;;;;5.32;1.90;;;;;;;25.63;41.38;98428.75;4982983;28;20045;-70
2022/07/14 11:15:42;;;;;;;5.13;1.83;;;;;;;25.67;41.16;98427.22;5017222;28;20037;-69
2022/07/14 11:18:17;;;;;;;5.68;1.75;;;;;;;25.68;41.27;98436.97;5011473;28;20034;-69
2022/07/14 11:21:19;;;;;;;2.95;1.33;;;;;;;25.65;40.93;98442.88;5027333;28;20219;-69
2022/07/14 11:23:48;;;;;;;2.45;1.75;;;;;;;25.67;40.98;98439.91;4986951;28;20046;-70
2022/07/14 11:26:32;;;;;;;4.72;1.63;;;;;;;25.68;40.87;98446.97;5026909;28;20029;-71
2022/07/14 11:28:58;;;;;;;4.88;1.95;;;;;;;25.64;41.17;98443.16;5027415;28;20178;-69
2022/07/14 11:31:24;;;;;;;3.47;1.63;;;;;;;25.64;41.05;98454.78;5028103;28;20049;-70
2022/07/14 11:36:38;;;;;;;4.47;2.20;;;;;;;25.53;41.49;98437.53;5027414;28;20091;-70
2022/07/14 11:39:34;;;;;;;2.47;1.88;;;;;;;25.55;41.59;98438.13;5027691;28;20045;-70
2022/07/14 11:42:01;;;;;;;2.45;1.70;;;;;;;25.57;41.86;98432.47;5023792;28;20041;-70